Eastsound, Washington
Current Conditions -  °F | °C
As of 5:55 AM on Wednesday 26 Nov 2014 (Local Time) from KORS Reporting Station
Light Rain Light Rain  
Wind Chill: 45°   Ceiling: 300
Heat Index: 45°   Visibility: 5mi
Dew Point: 45°   Wind: 0mph
Humidity: 100%   Direction: NA
Pressure: 30.05"   Gusts: NA
Location:  48.7°N, 122.91°W
Report Text: KORS 261355Z AUTO 00000KT 5SM -RA BKN003 BKN010 BKN014 07/07 A3005 RMK AO2
Loading
Personal Weather Stations






























Interactive Weather Map New forecast layout! Learn more

10-Day Weather Forecast

Advertisements
Track Severe Weather on mobile